createdAt,value
2023-01-29T00:02:48.525Z,99234.28
2023-01-29T00:05:51.953Z,99211.38
2023-01-29T00:08:56.806Z,99211.88
2023-01-29T00:12:00.589Z,99218.53
2023-01-29T00:15:04.289Z,99205.38
2023-01-29T00:18:08.011Z,99230.00
2023-01-29T00:21:12.006Z,99234.75
2023-01-29T00:24:17.318Z,99198.88
2023-01-29T00:27:39.147Z,99210.97
2023-01-29T00:30:43.547Z,99216.84
2023-01-29T00:33:48.753Z,99187.47
2023-01-29T00:37:04.994Z,99209.97
2023-01-29T00:40:12.040Z,99220.13
2023-01-29T00:43:47.327Z,99212.06
2023-01-29T00:46:51.093Z,99177.22
2023-01-29T00:49:54.772Z,99198.09
2023-01-29T00:52:59.854Z,99205.31
2023-01-29T00:56:05.048Z,99166.50
2023-01-29T00:59:10.050Z,99187.19
2023-01-29T01:02:31.648Z,99108.41
2023-01-29T01:05:37.000Z,99197.06
2023-01-29T01:08:59.251Z,99180.28
2023-01-29T01:12:04.867Z,99206.72
2023-01-29T01:15:09.140Z,99170.50
2023-01-29T01:18:14.861Z,99205.28
2023-01-29T01:21:18.454Z,99184.44
2023-01-29T01:24:41.428Z,99188.69
2023-01-29T01:27:47.913Z,99197.59
2023-01-29T01:30:53.087Z,99197.47
2023-01-29T01:33:59.798Z,99175.50
2023-01-29T01:37:03.982Z,99164.03
2023-01-29T01:40:12.931Z,99200.44
2023-01-29T01:43:18.421Z,99201.03
2023-01-29T01:46:23.190Z,99202.53
2023-01-29T01:49:27.362Z,99160.16
2023-01-29T01:52:32.840Z,99207.91
2023-01-29T01:55:40.735Z,99191.31
2023-01-29T01:58:50.656Z,99197.22
2023-01-29T02:01:55.947Z,99176.06
2023-01-29T02:05:19.313Z,99121.63
2023-01-29T02:09:01.343Z,99198.44
2023-01-29T02:12:09.129Z,99205.81
2023-01-29T02:15:16.861Z,99158.19
2023-01-29T02:18:23.139Z,99153.31
2023-01-29T02:21:53.215Z,99196.19
2023-01-29T02:25:21.336Z,99207.09
2023-01-29T02:28:37.380Z,99200.84
2023-01-29T02:31:48.424Z,99218.13
2023-01-29T02:35:22.297Z,99206.22
2023-01-29T02:38:32.537Z,99177.91
2023-01-29T02:41:43.098Z,99191.81
2023-01-29T02:44:53.616Z,99168.88
2023-01-29T02:48:00.121Z,99173.59
2023-01-29T02:51:08.992Z,99191.78
2023-01-29T02:54:21.240Z,99163.28
2023-01-29T02:57:30.948Z,99102.97
2023-01-29T03:00:40.907Z,99160.03
2023-01-29T03:03:49.941Z,99191.63
2023-01-29T03:07:01.645Z,99189.72
2023-01-29T03:10:11.437Z,99193.56
2023-01-29T03:13:19.596Z,99171.81
2023-01-29T03:16:27.550Z,99209.13
2023-01-29T03:19:34.538Z,99184.13
2023-01-29T03:22:46.816Z,99212.84
2023-01-29T03:26:13.201Z,99128.69
2023-01-29T03:29:34.120Z,99215.47
2023-01-29T03:32:40.214Z,99173.66
2023-01-29T03:35:50.638Z,99192.53
2023-01-29T03:39:15.392Z,99168.47
2023-01-29T03:42:25.924Z,99222.63
2023-01-29T03:45:43.384Z,99168.50
2023-01-29T03:48:55.148Z,99212.34
2023-01-29T03:52:06.689Z,99173.97
2023-01-29T03:55:16.805Z,99152.03
2023-01-29T03:58:26.037Z,99067.03
2023-01-29T04:01:35.677Z,99217.41
2023-01-29T04:04:44.838Z,99207.44
2023-01-29T04:07:53.549Z,99209.41
2023-01-29T04:11:00.665Z,99193.13
2023-01-29T04:14:05.477Z,99222.03
2023-01-29T04:17:29.945Z,99228.78
2023-01-29T04:20:49.916Z,99235.94
2023-01-29T04:23:54.388Z,99215.06
2023-01-29T04:27:12.706Z,99216.88
2023-01-29T04:45:04.492Z,99182.19
2023-01-29T04:48:18.587Z,99212.22
2023-01-29T04:51:30.334Z,99113.84
2023-01-29T04:54:45.293Z,99202.97
2023-01-29T04:57:55.427Z,99223.56
2023-01-29T05:01:02.296Z,99230.97
2023-01-29T05:04:12.118Z,99217.63
2023-01-29T05:07:17.119Z,99193.06
2023-01-29T05:10:22.498Z,99200.59
2023-01-29T05:13:27.903Z,99202.13
2023-01-29T05:16:53.930Z,99193.69
2023-01-29T05:19:58.135Z,99204.72
2023-01-29T05:23:04.388Z,99212.63
2023-01-29T05:26:08.142Z,99168.66
2023-01-29T05:29:12.283Z,99207.84
2023-01-29T05:32:18.104Z,99210.38
2023-01-29T05:35:40.404Z,99159.97
2023-01-29T05:38:44.264Z,99143.00
2023-01-29T05:41:47.673Z,99134.19
2023-01-29T05:44:51.515Z,99160.16
2023-01-29T05:47:59.485Z,99134.75
2023-01-29T05:51:03.873Z,99167.44
2023-01-29T05:54:08.860Z,99093.78
2023-01-29T05:57:16.215Z,99140.59
2023-01-29T06:00:20.622Z,99159.56
2023-01-29T06:03:27.045Z,99159.69
2023-01-29T06:06:31.704Z,99139.75
2023-01-29T06:09:37.341Z,99167.28
2023-01-29T06:12:42.505Z,99154.00
2023-01-29T06:15:45.855Z,99136.97
2023-01-29T06:18:53.636Z,99174.50
2023-01-29T06:21:57.114Z,99157.44
2023-01-29T06:25:02.221Z,99149.38
2023-01-29T06:28:06.411Z,99172.19
2023-01-29T06:31:27.435Z,99166.63
2023-01-29T06:34:37.355Z,99155.16
2023-01-29T06:37:40.994Z,99147.81
2023-01-29T06:40:44.484Z,99146.09
2023-01-29T06:43:48.688Z,99153.00
2023-01-29T06:46:53.219Z,99155.50
2023-01-29T06:49:58.803Z,99196.50
2023-01-29T06:53:04.575Z,99195.13
2023-01-29T06:56:09.779Z,99159.25
2023-01-29T06:59:14.351Z,99134.97
2023-01-29T07:02:18.930Z,99157.16
2023-01-29T07:05:27.203Z,99191.41
2023-01-29T07:08:31.646Z,99121.59
2023-01-29T07:11:38.065Z,99163.97
2023-01-29T07:14:41.936Z,99124.81
2023-01-29T07:17:45.515Z,99227.75
2023-01-29T07:20:51.372Z,99226.69
2023-01-29T07:23:55.243Z,99228.25
2023-01-29T07:27:17.101Z,99195.38
2023-01-29T07:30:39.780Z,99221.38
2023-01-29T07:33:45.031Z,99212.81
2023-01-29T07:36:49.783Z,99213.97
2023-01-29T07:39:53.729Z,99134.69
2023-01-29T07:42:59.747Z,99210.25
2023-01-29T07:46:04.490Z,99097.16
2023-01-29T07:49:12.022Z,99212.56
2023-01-29T07:52:20.778Z,99112.69
2023-01-29T07:55:26.116Z,99213.22
2023-01-29T07:58:29.593Z,99217.88
2023-01-29T08:01:36.466Z,99106.72
2023-01-29T08:04:58.933Z,99169.91
2023-01-29T08:08:28.033Z,99240.03
2023-01-29T08:11:31.496Z,99245.66
2023-01-29T08:14:35.492Z,99190.81
2023-01-29T08:17:57.251Z,99248.78
2023-01-29T08:21:02.272Z,99234.44
2023-01-29T08:24:09.313Z,99233.75
2023-01-29T08:27:32.437Z,99245.59
2023-01-29T08:30:37.622Z,99205.78
2023-01-29T08:33:41.012Z,99221.00
2023-01-29T08:37:02.881Z,99250.16
2023-01-29T08:40:14.374Z,99225.22
2023-01-29T08:43:19.835Z,99242.31
2023-01-29T08:46:24.887Z,99244.34
2023-01-29T08:49:48.003Z,99263.88
2023-01-29T08:52:52.291Z,99233.94
2023-01-29T08:55:57.914Z,99192.38
2023-01-29T08:59:03.357Z,99249.84
2023-01-29T09:02:08.003Z,99257.00
2023-01-29T09:05:15.030Z,99256.34
2023-01-29T09:08:39.011Z,99219.38
2023-01-29T09:11:44.635Z,99223.31
2023-01-29T09:14:50.399Z,99222.53
2023-01-29T09:17:57.393Z,99199.63
2023-01-29T09:21:02.580Z,99159.44
2023-01-29T09:24:07.361Z,99231.41
2023-01-29T09:27:12.357Z,99250.13
2023-01-29T09:30:16.586Z,99249.47
2023-01-29T09:33:22.734Z,99251.78
2023-01-29T09:36:26.298Z,99242.09
2023-01-29T09:39:31.922Z,99233.47
2023-01-29T09:42:44.220Z,99228.97
2023-01-29T09:45:56.772Z,99223.38
2023-01-29T09:49:08.462Z,99203.00
2023-01-29T09:52:21.531Z,99206.56
2023-01-29T09:55:28.569Z,99223.50
2023-01-29T09:58:37.836Z,99212.28
2023-01-29T10:01:53.338Z,99213.28
2023-01-29T10:05:19.019Z,99209.81
2023-01-29T10:08:59.218Z,99202.38
2023-01-29T10:12:18.275Z,99201.38
2023-01-29T10:15:37.071Z,99187.53
2023-01-29T10:19:16.044Z,99204.84
2023-01-29T10:22:41.916Z,99106.97
2023-01-29T10:25:47.401Z,99218.47
2023-01-29T10:28:54.749Z,99152.38
2023-01-29T10:45:21.852Z,99183.53
2023-01-29T10:48:46.816Z,99204.97
2023-01-29T10:52:07.559Z,99168.41
2023-01-29T10:55:30.383Z,99220.59
2023-01-29T10:58:41.270Z,99165.72
2023-01-29T11:01:46.595Z,99195.03
2023-01-29T11:04:50.579Z,99157.72
2023-01-29T11:08:03.934Z,99201.13
2023-01-29T11:11:09.932Z,99185.34
2023-01-29T11:14:19.227Z,99166.97
2023-01-29T11:17:27.857Z,99155.81
2023-01-29T11:20:32.556Z,99117.19
2023-01-29T11:23:35.922Z,99117.00
2023-01-29T11:26:41.910Z,99153.72
2023-01-29T11:29:48.803Z,99132.00
2023-01-29T11:33:01.773Z,99118.72
2023-01-29T11:36:22.820Z,99083.72
2023-01-29T11:39:29.549Z,99100.09
2023-01-29T11:42:34.922Z,99065.19
2023-01-29T11:45:41.965Z,99104.53
2023-01-29T11:49:14.338Z,99067.56
2023-01-29T11:52:26.861Z,99099.69
2023-01-29T11:55:49.833Z,99098.50
2023-01-29T11:58:55.569Z,99025.34
2023-01-29T12:02:10.589Z,99065.75
2023-01-29T12:05:19.283Z,99087.22
2023-01-29T12:08:24.731Z,99050.66
2023-01-29T12:11:34.000Z,99075.72
2023-01-29T12:14:39.105Z,99071.88
2023-01-29T12:17:47.073Z,99061.63
2023-01-29T12:20:59.520Z,99060.22
2023-01-29T12:24:08.790Z,99001.00
2023-01-29T12:27:20.859Z,99049.56
2023-01-29T12:30:30.897Z,99030.19
2023-01-29T12:33:45.202Z,98958.81
2023-01-29T12:36:57.293Z,99037.00
2023-01-29T12:40:05.334Z,99041.81
2023-01-29T12:43:34.760Z,99037.81
2023-01-29T12:46:42.719Z,99026.56
2023-01-29T12:50:08.971Z,99019.03
2023-01-29T12:53:29.439Z,99002.13
2023-01-29T12:57:00.966Z,99002.06
2023-01-29T13:00:15.420Z,98931.56
2023-01-29T13:03:26.562Z,98875.69
2023-01-29T13:06:33.294Z,98952.75
2023-01-29T13:09:40.578Z,98993.13
2023-01-29T13:12:53.843Z,98995.59
2023-01-29T13:16:00.048Z,98935.03
2023-01-29T13:19:07.884Z,98916.53
2023-01-29T13:22:20.856Z,98982.13
2023-01-29T13:25:30.693Z,98926.69
2023-01-29T13:28:35.954Z,98975.50
2023-01-29T13:31:41.391Z,98995.06
2023-01-29T13:34:48.660Z,98973.78
2023-01-29T13:37:55.871Z,98991.72
2023-01-29T13:41:05.341Z,98974.56
2023-01-29T13:44:24.288Z,98870.56
2023-01-29T13:47:31.491Z,98946.53
2023-01-29T13:50:42.287Z,98921.28
2023-01-29T13:54:09.088Z,98952.25
2023-01-29T13:57:49.860Z,98902.38
2023-01-29T14:00:54.277Z,98907.38
2023-01-29T14:04:06.034Z,98966.13
2023-01-29T14:07:50.234Z,98933.78
2023-01-29T14:11:34.516Z,98961.28
2023-01-29T14:15:07.138Z,98958.72
2023-01-29T14:18:20.819Z,98981.94
2023-01-29T14:21:29.883Z,98951.81
2023-01-29T14:24:35.740Z,98801.59
2023-01-29T14:27:39.368Z,98916.00
2023-01-29T14:30:50.422Z,98845.31
2023-01-29T14:34:02.126Z,98896.66
2023-01-29T14:37:32.479Z,98946.53
2023-01-29T14:40:37.397Z,98896.66
2023-01-29T14:43:41.482Z,98733.44
2023-01-29T14:46:46.972Z,98955.53
2023-01-29T14:49:59.602Z,98922.09
2023-01-29T14:53:15.170Z,98842.09
2023-01-29T14:56:30.304Z,98843.66
2023-01-29T14:59:47.330Z,98939.50
2023-01-29T15:03:02.263Z,98874.19
2023-01-29T15:06:09.649Z,98934.81
2023-01-29T15:09:19.126Z,98739.06
2023-01-29T15:12:39.036Z,98942.53
2023-01-29T15:15:49.804Z,98544.81
2023-01-29T15:19:27.522Z,98799.00
2023-01-29T15:22:53.301Z,98931.47
2023-01-29T15:26:01.884Z,98858.09
2023-01-29T15:29:09.887Z,98921.22
2023-01-29T15:32:30.183Z,98810.94
2023-01-29T15:35:39.387Z,98864.75
2023-01-29T15:38:43.037Z,98886.00
2023-01-29T15:41:51.479Z,98910.78
2023-01-29T15:44:56.249Z,98880.91
2023-01-29T15:48:05.475Z,98908.09
2023-01-29T15:51:16.735Z,98800.66
2023-01-29T15:54:39.883Z,98891.69
2023-01-29T15:57:44.880Z,98912.13
2023-01-29T16:00:57.473Z,98903.34
2023-01-29T16:04:06.188Z,98914.31
2023-01-29T16:07:13.623Z,98877.00
2023-01-29T16:10:22.146Z,98919.28
2023-01-29T16:13:30.803Z,98921.53
2023-01-29T16:16:34.964Z,98885.63
2023-01-29T16:19:44.081Z,98885.34
2023-01-29T16:22:55.076Z,98783.69
2023-01-29T16:26:04.103Z,98898.91
2023-01-29T16:29:11.531Z,98842.28
2023-01-29T16:45:03.877Z,98902.06
2023-01-29T16:48:33.483Z,98906.47
2023-01-29T16:51:44.976Z,98896.13
2023-01-29T16:55:21.455Z,98902.84
2023-01-29T16:58:30.349Z,98911.25
2023-01-29T17:01:38.069Z,98889.72
2023-01-29T17:04:42.596Z,98907.16
2023-01-29T17:07:47.715Z,98801.97
2023-01-29T17:10:55.193Z,98905.88
2023-01-29T17:13:59.086Z,98900.66
2023-01-29T17:17:05.937Z,98902.19
2023-01-29T17:20:15.138Z,98839.53
2023-01-29T17:23:18.708Z,98856.19
2023-01-29T17:26:41.142Z,98878.34
2023-01-29T17:29:44.774Z,98822.69
2023-01-29T17:32:49.777Z,98886.91
2023-01-29T17:35:55.784Z,98885.00
2023-01-29T17:39:01.182Z,98886.53
2023-01-29T17:42:04.868Z,98854.56
2023-01-29T17:45:10.793Z,98884.59
2023-01-29T17:48:20.929Z,98881.72
2023-01-29T17:51:25.151Z,98887.78
2023-01-29T17:54:28.645Z,98826.09
2023-01-29T17:57:34.326Z,98883.56
2023-01-29T18:00:40.315Z,98862.66
2023-01-29T18:03:45.488Z,98885.72
2023-01-29T18:06:51.457Z,98863.34
2023-01-29T18:09:55.000Z,98864.78
2023-01-29T18:12:58.594Z,98784.28
2023-01-29T18:16:02.108Z,98885.13
2023-01-29T18:19:14.796Z,98893.66
2023-01-29T18:22:18.598Z,98882.19
2023-01-29T18:25:24.733Z,98900.22
2023-01-29T18:28:29.781Z,98901.84
2023-01-29T18:31:33.347Z,98903.31
2023-01-29T18:34:38.332Z,98897.69
2023-01-29T18:37:41.870Z,98843.28
2023-01-29T18:40:45.277Z,98896.34
2023-01-29T18:44:07.162Z,98858.28
2023-01-29T18:47:10.753Z,98862.03
2023-01-29T18:50:16.074Z,98872.97
2023-01-29T18:53:19.483Z,98857.91
2023-01-29T18:56:22.902Z,98881.63
2023-01-29T18:59:26.558Z,98907.81
2023-01-29T19:02:30.500Z,98910.09
2023-01-29T19:05:36.251Z,98893.16
2023-01-29T19:08:40.086Z,98883.69
2023-01-29T19:11:43.510Z,98919.91
2023-01-29T19:14:47.111Z,98904.72
2023-01-29T19:17:51.840Z,98884.81
2023-01-29T19:20:59.406Z,98913.25
2023-01-29T19:24:03.249Z,98915.72
2023-01-29T19:27:08.665Z,98883.31
2023-01-29T19:30:13.896Z,98856.69
2023-01-29T19:33:17.800Z,98832.81
2023-01-29T19:36:22.988Z,98835.28
2023-01-29T19:39:29.900Z,98913.31
2023-01-29T19:42:35.602Z,98904.06
2023-01-29T19:45:50.259Z,98894.19
2023-01-29T19:49:12.712Z,98902.94
2023-01-29T19:52:49.458Z,98902.19
2023-01-29T19:55:59.671Z,98864.53
2023-01-29T19:59:05.058Z,98869.50
2023-01-29T20:02:10.211Z,98862.41
2023-01-29T20:05:14.199Z,98820.72
2023-01-29T20:08:19.975Z,98871.97
2023-01-29T20:11:25.140Z,98865.22
2023-01-29T20:14:28.890Z,98854.63
2023-01-29T20:17:32.425Z,98871.69
2023-01-29T20:20:36.039Z,98836.22
2023-01-29T20:23:40.968Z,98759.94
2023-01-29T20:27:03.036Z,98858.75
2023-01-29T20:30:08.270Z,98781.88
2023-01-29T20:33:12.791Z,98811.28
2023-01-29T20:36:16.639Z,98855.03
2023-01-29T20:39:22.018Z,98838.66
2023-01-29T20:42:25.845Z,98850.59
2023-01-29T20:45:33.070Z,98845.84
2023-01-29T20:48:37.277Z,98857.25
2023-01-29T20:51:41.208Z,98842.53
2023-01-29T20:54:46.919Z,98837.28
2023-01-29T20:58:05.636Z,98841.16
2023-01-29T21:01:10.763Z,98840.75
2023-01-29T21:04:14.214Z,98840.69
2023-01-29T21:07:18.074Z,98847.44
2023-01-29T21:10:43.290Z,98833.09
2023-01-29T21:13:47.032Z,98822.06
2023-01-29T21:16:50.559Z,98827.63
2023-01-29T21:19:54.643Z,98842.81
2023-01-29T21:22:58.171Z,98840.59
2023-01-29T21:26:04.611Z,98839.56
2023-01-29T21:29:08.363Z,98813.50
2023-01-29T21:32:11.922Z,98838.28
2023-01-29T21:35:15.958Z,98856.97
2023-01-29T21:38:19.391Z,98839.31
2023-01-29T21:41:44.769Z,98849.47
2023-01-29T21:44:48.261Z,98853.06
2023-01-29T21:47:51.799Z,98857.13
2023-01-29T21:50:55.938Z,98823.72
2023-01-29T21:53:59.462Z,98869.63
2023-01-29T21:57:05.618Z,98862.16
2023-01-29T22:00:11.153Z,98851.59
2023-01-29T22:03:14.747Z,98855.09
2023-01-29T22:06:37.050Z,98856.28
2023-01-29T22:09:41.586Z,98852.38
2023-01-29T22:12:46.971Z,98854.66
2023-01-29T22:15:50.527Z,98830.59
2023-01-29T22:18:54.191Z,98835.50
2023-01-29T22:21:57.804Z,98830.88
2023-01-29T22:25:01.420Z,98827.41
2023-01-29T22:28:07.165Z,98805.34
2023-01-29T22:44:58.008Z,98768.06
2023-01-29T22:48:01.942Z,98670.03
2023-01-29T22:51:11.940Z,98754.06
2023-01-29T22:54:33.374Z,98728.31
2023-01-29T22:57:38.038Z,98717.00
2023-01-29T23:00:43.040Z,98674.56
2023-01-29T23:04:05.059Z,98703.13
2023-01-29T23:07:08.380Z,98697.63
2023-01-29T23:10:16.495Z,98684.50
2023-01-29T23:13:20.495Z,98621.09
2023-01-29T23:16:28.251Z,98690.16
2023-01-29T23:19:31.720Z,98637.78
2023-01-29T23:22:35.904Z,98646.09
2023-01-29T23:25:56.905Z,98644.34
2023-01-29T23:29:01.269Z,98656.38
2023-01-29T23:32:07.072Z,98673.88
2023-01-29T23:35:11.120Z,98664.06
2023-01-29T23:38:14.479Z,98660.78
2023-01-29T23:41:17.830Z,98628.88
2023-01-29T23:44:21.278Z,98638.09
2023-01-29T23:47:26.041Z,98660.88
2023-01-29T23:50:29.559Z,98648.09
2023-01-29T23:53:32.973Z,98642.16
2023-01-29T23:56:36.343Z,98624.50
2023-01-29T23:59:39.812Z,98624.06
